Clover, Utah
Current Conditions -  °F | °C
As of 3:55 AM on Sunday 23 Nov 2014 (Local Time) from KPVU Reporting Station
Clear Clear  
Wind Chill: 26°   Ceiling: Unl
Heat Index: 36°   Visibility: 10mi
Dew Point: 25°   Wind: 16mph
Humidity: 65%   Direction: 300°WNW
Pressure: 30.03"   Gusts: 21mph
Location:  40.3367°N, 112.46°W
Report Text: KPVU 231055Z 30014G18KT 10SM CLR 02/M04 A3003 RMK AO1
Loading
Personal Weather Stations






























Interactive Weather Map New forecast layout! Learn more

10-Day Weather Forecast

Advertisements
Track Severe Weather on mobile